Accueil
METAR-TAF:

METAR-TAF

Aéroports :

Aéroport de Bologne-Borgo Panigale

Bologne, Italie

latitude: 44-32N, longitude: 011-18E, altitude: 36 m

Observation

Le bulletin a été fait il y a 28 minutes, à 00:20 UTC
Vent 10 kt de ouest/sud-ouest
Température 8°C
Humidité 42%
Pression 1005 hPa
Visibilité 10 km ou plus
pas de nuages en-dessous de 1500 mètres et pas de cumulonimbus.

METAR: LIPE 280020Z 25010KT CAVOK 08/M04 Q1005

Heure: 01:48 (00:48 UTC)

Prévision

Le bulletin a été fait il y a 7 heures et 48 minutes, à 17:00 UTC
Prévision valable du 27 à 18 UTC au 28 à 18 UTC
Vent 10 kt de sud-ouest
Visibilité 10 km ou plus
Nuages épars à une hauteur de 4000 ft
Evoluant progressivement
du 27 à 22 UTC au 27 à 24 UTC
Vent 12 kt de ouest/nord-ouest
Evoluant progressivement
du 28 à 07 UTC au 28 à 10 UTC
Vent 5 kt de direction variable

TAF: LIPE 271700Z 2718/2818 22010KT 9999 SCT040 BECMG 2722/2724 29012KT BECMG 2807/2810 VRB05KT

Observations et prévisions météorologiques de plus de 4000 aéroports (messages METAR et TAF).

Les stations disponibles sont représentées par des disques jaunes et rouges sur la carte.

Passer la souris dessus pour voir le nom de la station.

Cliquer dessus pour voir les observations et prévisions météorologiques.

Pour changer de carte: cliquez sur les boutons verts avec une croix noire pour zoomer, sur le bouton vert avec un tiret pour effectuer un zoom arrière, ou sur les flèches vertes pour les cartes adjacentes.


METAR-TAF: